ARG1523 SASJ-SACO
Flight info
| Callsign | ARG1523 |
|---|---|
| Flight time | 1h 23m |
| Altitude | 34000 |
| Route | PONPI2C PONPI UN525 DONKA DONKA1Q |
| Aircraft | B738/M-SDE2E3FGHIRWXY/LB1 |
Departure
| Time | 2026-05-07 00:04 |
|---|---|
| Airport | Gobernador Horacio Guzman International Airport (SASJ) |
Arrival
| Time | 2026-05-07 01:27 |
|---|---|
| Airport | Ingeniero Aeronáutico Ambrosio L.V. Taravella International Airport (SACO) |
| Time | Latitude | Longitude | Altitude | Speed | Heading |
|---|---|---|---|---|---|
| 2026-05-06 23:08 | -24.38658 | -65.09448 | 2997 ft | 0 kts | 59° |
| 2026-05-06 23:53 | -24.38664 | -65.09457 | 2997 ft | 4 kts | 53° |
| 2026-05-06 23:53 | -24.38682 | -65.09476 | 2997 ft | 4 kts | 20° |
| 2026-05-06 23:53 | -24.38705 | -65.09477 | 2997 ft | 2 kts | 332° |
| 2026-05-06 23:53 | -24.38707 | -65.09476 | 2997 ft | 1 kts | 330° |
| 2026-05-06 23:57 | -24.38698 | -65.09482 | 2997 ft | 5 kts | 331° |
| 2026-05-06 23:57 | -24.38646 | -65.09514 | 2996 ft | 12 kts | 330° |
| 2026-05-06 23:58 | -24.38580 | -65.09555 | 2996 ft | 9 kts | 330° |
| 2026-05-06 23:58 | -24.38565 | -65.09607 | 2996 ft | 8 kts | 247° |
| 2026-05-06 23:58 | -24.38593 | -65.09659 | 2996 ft | 8 kts | 239° |
| 2026-05-06 23:58 | -24.38620 | -65.09710 | 2996 ft | 8 kts | 240° |
| 2026-05-06 23:59 | -24.38650 | -65.09769 | 2996 ft | 12 kts | 239° |
| 2026-05-06 23:59 | -24.38697 | -65.09856 | 2997 ft | 9 kts | 240° |
| 2026-05-06 23:59 | -24.38692 | -65.09914 | 2997 ft | 8 kts | 317° |
| 2026-05-06 23:59 | -24.38643 | -65.09948 | 2997 ft | 8 kts | 328° |
| 2026-05-07 00:00 | -24.38595 | -65.09979 | 2997 ft | 8 kts | 332° |
| 2026-05-07 00:00 | -24.38539 | -65.10013 | 2997 ft | 11 kts | 330° |
| 2026-05-07 00:00 | -24.38456 | -65.10065 | 2996 ft | 14 kts | 329° |
| 2026-05-07 00:00 | -24.38370 | -65.10119 | 2996 ft | 14 kts | 330° |
| 2026-05-07 00:01 | -24.38288 | -65.10170 | 2996 ft | 13 kts | 329° |
| 2026-05-07 00:01 | -24.38210 | -65.10220 | 2996 ft | 13 kts | 330° |
| 2026-05-07 00:01 | -24.38134 | -65.10268 | 2996 ft | 12 kts | 330° |
| 2026-05-07 00:01 | -24.38057 | -65.10316 | 2996 ft | 13 kts | 330° |
| 2026-05-07 00:02 | -24.38016 | -65.10370 | 2996 ft | 9 kts | 263° |
| 2026-05-07 00:02 | -24.38044 | -65.10427 | 2996 ft | 8 kts | 239° |
| 2026-05-07 00:02 | -24.38086 | -65.10461 | 2996 ft | 8 kts | 189° |
| 2026-05-07 00:02 | -24.38135 | -65.10476 | 2997 ft | 7 kts | 214° |
| 2026-05-07 00:03 | -24.38172 | -65.10471 | 2997 ft | 0 kts | 152° |
| 2026-05-07 00:03 | -24.38175 | -65.10469 | 2997 ft | 7 kts | 152° |
| 2026-05-07 00:04 | -24.38467 | -65.10286 | 2997 ft | 89 kts | 150° |
| 2026-05-07 00:04 | -24.39223 | -65.09809 | 2998 ft | 159 kts | 150° |
| 2026-05-07 00:04 | -24.40327 | -65.09109 | 3297 ft | 196 kts | 150° |
| 2026-05-07 00:04 | -24.41509 | -65.08395 | 4419 ft | 190 kts | 153° |
| 2026-05-07 00:05 | -24.42679 | -65.07719 | 5387 ft | 197 kts | 154° |
| 2026-05-07 00:05 | -24.43963 | -65.07017 | 5788 ft | 220 kts | 157° |
| 2026-05-07 00:05 | -24.45392 | -65.06246 | 6122 ft | 238 kts | 154° |
| 2026-05-07 00:05 | -24.46953 | -65.05392 | 6276 ft | 262 kts | 153° |
| 2026-05-07 00:06 | -24.48616 | -65.04444 | 6692 ft | 275 kts | 149° |
| 2026-05-07 00:06 | -24.50368 | -65.03415 | 6984 ft | 297 kts | 150° |
| 2026-05-07 00:06 | -24.52224 | -65.02336 | 7656 ft | 304 kts | 150° |
| 2026-05-07 00:06 | -24.54135 | -65.01287 | 8400 ft | 310 kts | 158° |
| 2026-05-07 00:07 | -24.56274 | -65.00943 | 9102 ft | 313 kts | 184° |
| 2026-05-07 00:07 | -24.58419 | -65.01326 | 9853 ft | 314 kts | 199° |
| 2026-05-07 00:07 | -24.60484 | -65.02175 | 10396 ft | 324 kts | 204° |
| 2026-05-07 00:07 | -24.62625 | -65.03204 | 10565 ft | 346 kts | 206° |
| 2026-05-07 00:08 | -24.64881 | -65.04298 | 10848 ft | 360 kts | 205° |
| 2026-05-07 00:08 | -24.67202 | -65.05394 | 11420 ft | 364 kts | 205° |
| 2026-05-07 00:08 | -24.69493 | -65.06443 | 12199 ft | 361 kts | 204° |
| 2026-05-07 00:08 | -24.71824 | -65.07495 | 12859 ft | 363 kts | 204° |
| 2026-05-07 00:09 | -24.74176 | -65.08551 | 13431 ft | 366 kts | 204° |
| 2026-05-07 00:09 | -24.76563 | -65.09559 | 14013 ft | 370 kts | 199° |
| 2026-05-07 00:09 | -24.79070 | -65.10249 | 14630 ft | 373 kts | 194° |
| 2026-05-07 00:09 | -24.81641 | -65.10784 | 15210 ft | 376 kts | 193° |
| 2026-05-07 00:10 | -24.84225 | -65.11287 | 15757 ft | 379 kts | 193° |
| 2026-05-07 00:10 | -24.86830 | -65.11803 | 16330 ft | 381 kts | 193° |
| 2026-05-07 00:10 | -24.89441 | -65.12343 | 16899 ft | 383 kts | 194° |
| 2026-05-07 00:10 | -24.92075 | -65.12907 | 17467 ft | 386 kts | 194° |
| 2026-05-07 00:11 | -24.94714 | -65.13485 | 18011 ft | 388 kts | 195° |
| 2026-05-07 00:11 | -24.97365 | -65.14073 | 18560 ft | 391 kts | 195° |
| 2026-05-07 00:11 | -25.00040 | -65.14669 | 19052 ft | 394 kts | 195° |
| 2026-05-07 00:11 | -25.02741 | -65.15273 | 19559 ft | 397 kts | 195° |
| 2026-05-07 00:12 | -25.05467 | -65.15883 | 20056 ft | 400 kts | 195° |
| 2026-05-07 00:12 | -25.08207 | -65.16495 | 20534 ft | 403 kts | 195° |
| 2026-05-07 00:12 | -25.10932 | -65.17102 | 20988 ft | 407 kts | 196° |
| 2026-05-07 00:12 | -25.13716 | -65.17724 | 21446 ft | 409 kts | 196° |
| 2026-05-07 00:13 | -25.16518 | -65.18352 | 21896 ft | 413 kts | 196° |
| 2026-05-07 00:13 | -25.19345 | -65.18983 | 22343 ft | 415 kts | 196° |
| 2026-05-07 00:13 | -25.22180 | -65.19612 | 22795 ft | 417 kts | 196° |
| 2026-05-07 00:13 | -25.25045 | -65.20248 | 23198 ft | 420 kts | 197° |
| 2026-05-07 00:14 | -25.27919 | -65.20886 | 23600 ft | 423 kts | 197° |
| 2026-05-07 00:14 | -25.30814 | -65.21529 | 23998 ft | 426 kts | 197° |
| 2026-05-07 00:14 | -25.33728 | -65.22177 | 24397 ft | 428 kts | 197° |
| 2026-05-07 00:14 | -25.36652 | -65.22828 | 24789 ft | 430 kts | 197° |
| 2026-05-07 00:15 | -25.39597 | -65.23484 | 25163 ft | 433 kts | 197° |
| 2026-05-07 00:15 | -25.42552 | -65.24142 | 25547 ft | 435 kts | 197° |
| 2026-05-07 00:15 | -25.45530 | -65.24805 | 25896 ft | 437 kts | 197° |
| 2026-05-07 00:15 | -25.48525 | -65.25474 | 26198 ft | 440 kts | 198° |
| 2026-05-07 00:16 | -25.51540 | -65.26147 | 26525 ft | 443 kts | 198° |
| 2026-05-07 00:16 | -25.54566 | -65.26822 | 26849 ft | 444 kts | 198° |
| 2026-05-07 00:16 | -25.57606 | -65.27501 | 27130 ft | 447 kts | 198° |
| 2026-05-07 00:16 | -25.60660 | -65.28183 | 27443 ft | 449 kts | 198° |
| 2026-05-07 00:17 | -25.63728 | -65.28869 | 27730 ft | 450 kts | 199° |
| 2026-05-07 00:17 | -25.66812 | -65.29558 | 27998 ft | 453 kts | 199° |
| 2026-05-07 00:17 | -25.69905 | -65.30250 | 28294 ft | 454 kts | 199° |
| 2026-05-07 00:17 | -25.72972 | -65.30940 | 28560 ft | 456 kts | 199° |
| 2026-05-07 00:18 | -25.76136 | -65.31459 | 28792 ft | 469 kts | 188° |
| 2026-05-07 00:18 | -25.79482 | -65.31047 | 29062 ft | 484 kts | 176° |
| 2026-05-07 00:18 | -25.82790 | -65.30338 | 29371 ft | 485 kts | 176° |
| 2026-05-07 00:18 | -25.86085 | -65.29641 | 29538 ft | 490 kts | 176° |
| 2026-05-07 00:19 | -25.89482 | -65.28931 | 29946 ft | 488 kts | 178° |
| 2026-05-07 00:19 | -25.92822 | -65.28246 | 30294 ft | 487 kts | 178° |
| 2026-05-07 00:19 | -25.96103 | -65.27605 | 30587 ft | 486 kts | 177° |
| 2026-05-07 00:19 | -25.99430 | -65.26945 | 30861 ft | 485 kts | 179° |
| 2026-05-07 00:20 | -26.02754 | -65.26338 | 31107 ft | 483 kts | 179° |
| 2026-05-07 00:20 | -26.06085 | -65.25729 | 31327 ft | 487 kts | 180° |
| 2026-05-07 00:20 | -26.09407 | -65.25087 | 31645 ft | 485 kts | 179° |
| 2026-05-07 00:20 | -26.12747 | -65.24463 | 31932 ft | 485 kts | 180° |
| 2026-05-07 00:21 | -26.16073 | -65.23863 | 32393 ft | 481 kts | 180° |
| 2026-05-07 00:21 | -26.19359 | -65.23256 | 32792 ft | 478 kts | 180° |
| 2026-05-07 00:21 | -26.22648 | -65.22654 | 33081 ft | 479 kts | 180° |
| 2026-05-07 00:21 | -26.25937 | -65.22013 | 33462 ft | 479 kts | 178° |
| 2026-05-07 00:22 | -26.29200 | -65.21335 | 33744 ft | 476 kts | 179° |
| 2026-05-07 00:22 | -26.32467 | -65.20689 | 33752 ft | 479 kts | 180° |
| 2026-05-07 00:22 | -26.39051 | -65.19500 | 33749 ft | 479 kts | 180° |
| 2026-05-07 00:23 | -26.45578 | -65.18262 | 33737 ft | 478 kts | 179° |
| 2026-05-07 00:23 | -26.52101 | -65.16993 | 33756 ft | 476 kts | 179° |
| 2026-05-07 00:24 | -26.58622 | -65.15762 | 33753 ft | 476 kts | 180° |
| 2026-05-07 00:24 | -26.65127 | -65.14512 | 33754 ft | 472 kts | 180° |
| 2026-05-07 00:25 | -26.71580 | -65.13412 | 33752 ft | 471 kts | 179° |
| 2026-05-07 00:25 | -26.78056 | -65.12001 | 33756 ft | 476 kts | 181° |
| 2026-05-07 00:26 | -26.84628 | -65.10896 | 33758 ft | 481 kts | 180° |
| 2026-05-07 00:26 | -26.91205 | -65.09635 | 33759 ft | 487 kts | 178° |
| 2026-05-07 00:27 | -26.97843 | -65.08189 | 33755 ft | 485 kts | 179° |
| 2026-05-07 00:27 | -27.04462 | -65.06832 | 33742 ft | 484 kts | 179° |
| 2026-05-07 00:28 | -27.11068 | -65.05644 | 33741 ft | 480 kts | 181° |
| 2026-05-07 00:28 | -27.17685 | -65.04369 | 33746 ft | 484 kts | 180° |
| 2026-05-07 00:29 | -27.24311 | -65.03052 | 33712 ft | 480 kts | 182° |
| 2026-05-07 00:30 | -27.37417 | -65.00668 | 33712 ft | 476 kts | 180° |
| 2026-05-07 00:30 | -27.43904 | -64.99335 | 33701 ft | 474 kts | 180° |
| 2026-05-07 00:31 | -27.50423 | -64.97994 | 33682 ft | 477 kts | 180° |
| 2026-05-07 00:31 | -27.56999 | -64.96745 | 33697 ft | 485 kts | 179° |
| 2026-05-07 00:32 | -27.63633 | -64.95262 | 33682 ft | 485 kts | 180° |
| 2026-05-07 00:32 | -27.70204 | -64.94086 | 33706 ft | 475 kts | 182° |
| 2026-05-07 00:33 | -27.76735 | -64.92965 | 33669 ft | 475 kts | 180° |
| 2026-05-07 00:33 | -27.83236 | -64.91629 | 33699 ft | 477 kts | 180° |
| 2026-05-07 00:34 | -27.89838 | -64.90404 | 33699 ft | 481 kts | 182° |
| 2026-05-07 00:34 | -27.96483 | -64.89242 | 33696 ft | 485 kts | 182° |
| 2026-05-07 00:35 | -28.03085 | -64.87964 | 33673 ft | 479 kts | 181° |
| 2026-05-07 00:35 | -28.09640 | -64.86737 | 33685 ft | 477 kts | 184° |
| 2026-05-07 00:36 | -28.16273 | -64.85585 | 33692 ft | 484 kts | 181° |
| 2026-05-07 00:36 | -28.21815 | -64.84566 | 33697 ft | 491 kts | 179° |
| 2026-05-07 00:37 | -28.28514 | -64.83150 | 33687 ft | 485 kts | 181° |
| 2026-05-07 00:37 | -28.35094 | -64.82011 | 33696 ft | 476 kts | 181° |
| 2026-05-07 00:38 | -28.41636 | -64.80692 | 33672 ft | 476 kts | 181° |
| 2026-05-07 00:38 | -28.48128 | -64.79675 | 33683 ft | 480 kts | 181° |
| 2026-05-07 00:39 | -28.54748 | -64.78312 | 33695 ft | 484 kts | 181° |
| 2026-05-07 00:39 | -28.61399 | -64.77076 | 33691 ft | 484 kts | 182° |
| 2026-05-07 00:40 | -28.68078 | -64.75858 | 33671 ft | 491 kts | 180° |
| 2026-05-07 00:40 | -28.74777 | -64.74394 | 33662 ft | 488 kts | 177° |
| 2026-05-07 00:41 | -28.81360 | -64.72673 | 33686 ft | 481 kts | 180° |
| 2026-05-07 00:41 | -28.87942 | -64.71358 | 33662 ft | 481 kts | 182° |
| 2026-05-07 00:42 | -28.94579 | -64.70056 | 33687 ft | 485 kts | 182° |
| 2026-05-07 00:42 | -29.01246 | -64.68713 | 33686 ft | 490 kts | 178° |
| 2026-05-07 00:43 | -29.07886 | -64.67020 | 33693 ft | 492 kts | 179° |
| 2026-05-07 00:43 | -29.14599 | -64.65560 | 33651 ft | 487 kts | 181° |
| 2026-05-07 00:44 | -29.21259 | -64.64162 | 33678 ft | 488 kts | 180° |
| 2026-05-07 00:44 | -29.27937 | -64.62740 | 33669 ft | 488 kts | 180° |
| 2026-05-07 00:45 | -29.34608 | -64.61314 | 33682 ft | 487 kts | 180° |
| 2026-05-07 00:45 | -29.41207 | -64.59881 | 33679 ft | 479 kts | 180° |
| 2026-05-07 00:46 | -29.44483 | -64.59166 | 33545 ft | 481 kts | 180° |
| 2026-05-07 00:46 | -29.47767 | -64.58451 | 33272 ft | 479 kts | 180° |
| 2026-05-07 00:46 | -29.51042 | -64.57734 | 33021 ft | 476 kts | 180° |
| 2026-05-07 00:46 | -29.54291 | -64.57022 | 32773 ft | 473 kts | 180° |
| 2026-05-07 00:47 | -29.57512 | -64.56316 | 32483 ft | 468 kts | 180° |
| 2026-05-07 00:47 | -29.60697 | -64.55621 | 32089 ft | 463 kts | 180° |
| 2026-05-07 00:47 | -29.63861 | -64.54988 | 31680 ft | 459 kts | 181° |
| 2026-05-07 00:47 | -29.66999 | -64.54402 | 31277 ft | 455 kts | 181° |
| 2026-05-07 00:48 | -29.70113 | -64.53832 | 30874 ft | 451 kts | 181° |
| 2026-05-07 00:48 | -29.73164 | -64.53275 | 30470 ft | 449 kts | 181° |
| 2026-05-07 00:48 | -29.76243 | -64.52709 | 30066 ft | 447 kts | 180° |
| 2026-05-07 00:48 | -29.79302 | -64.52136 | 29658 ft | 444 kts | 180° |
| 2026-05-07 00:49 | -29.82332 | -64.51535 | 29246 ft | 440 kts | 179° |
| 2026-05-07 00:49 | -29.85337 | -64.50928 | 28841 ft | 437 kts | 179° |
| 2026-05-07 00:49 | -29.88321 | -64.50370 | 28438 ft | 432 kts | 180° |
| 2026-05-07 00:49 | -29.91286 | -64.49840 | 28016 ft | 430 kts | 180° |
| 2026-05-07 00:50 | -29.94241 | -64.49295 | 27605 ft | 428 kts | 180° |
| 2026-05-07 00:50 | -29.97166 | -64.48716 | 27193 ft | 426 kts | 178° |
| 2026-05-07 00:50 | -30.00078 | -64.48098 | 26789 ft | 424 kts | 178° |
| 2026-05-07 00:50 | -30.02965 | -64.47470 | 26383 ft | 421 kts | 178° |
| 2026-05-07 00:51 | -30.05840 | -64.46844 | 25976 ft | 419 kts | 178° |
| 2026-05-07 00:51 | -30.08700 | -64.46224 | 25572 ft | 417 kts | 178° |
| 2026-05-07 00:51 | -30.11542 | -64.45614 | 25172 ft | 415 kts | 178° |
| 2026-05-07 00:51 | -30.14369 | -64.45009 | 24768 ft | 412 kts | 178° |
| 2026-05-07 00:52 | -30.17179 | -64.44409 | 24367 ft | 410 kts | 178° |
| 2026-05-07 00:52 | -30.19975 | -64.43811 | 23967 ft | 407 kts | 177° |
| 2026-05-07 00:52 | -30.22757 | -64.43218 | 23571 ft | 405 kts | 177° |
| 2026-05-07 00:52 | -30.25487 | -64.42635 | 23181 ft | 402 kts | 177° |
| 2026-05-07 00:53 | -30.28232 | -64.42048 | 22787 ft | 400 kts | 177° |
| 2026-05-07 00:53 | -30.30965 | -64.41463 | 22393 ft | 399 kts | 177° |
| 2026-05-07 00:53 | -30.33688 | -64.40882 | 21993 ft | 397 kts | 177° |
| 2026-05-07 00:53 | -30.36403 | -64.40300 | 21589 ft | 395 kts | 177° |
| 2026-05-07 00:54 | -30.39093 | -64.39721 | 21196 ft | 393 kts | 176° |
| 2026-05-07 00:54 | -30.41708 | -64.38690 | 20748 ft | 407 kts | 154° |
| 2026-05-07 00:54 | -30.43990 | -64.36716 | 20429 ft | 408 kts | 145° |
| 2026-05-07 00:54 | -30.46201 | -64.34663 | 19979 ft | 408 kts | 146° |
| 2026-05-07 00:55 | -30.48434 | -64.32635 | 19591 ft | 405 kts | 146° |
| 2026-05-07 00:55 | -30.50657 | -64.30642 | 19200 ft | 403 kts | 147° |
| 2026-05-07 00:55 | -30.52873 | -64.28665 | 18805 ft | 401 kts | 147° |
| 2026-05-07 00:55 | -30.55080 | -64.26695 | 18428 ft | 399 kts | 147° |
| 2026-05-07 00:56 | -30.57271 | -64.24736 | 18043 ft | 396 kts | 147° |
| 2026-05-07 00:56 | -30.59604 | -64.23121 | 17624 ft | 384 kts | 167° |
| 2026-05-07 00:56 | -30.62157 | -64.22520 | 17283 ft | 367 kts | 185° |
| 2026-05-07 00:56 | -30.64655 | -64.22441 | 16930 ft | 362 kts | 186° |
| 2026-05-07 00:57 | -30.67169 | -64.22386 | 16556 ft | 360 kts | 186° |
| 2026-05-07 00:57 | -30.69667 | -64.22326 | 16181 ft | 358 kts | 186° |
| 2026-05-07 00:57 | -30.72147 | -64.22258 | 15821 ft | 356 kts | 185° |
| 2026-05-07 00:57 | -30.74614 | -64.22182 | 15464 ft | 353 kts | 185° |
| 2026-05-07 00:58 | -30.77029 | -64.22345 | 15091 ft | 342 kts | 198° |
| 2026-05-07 00:58 | -30.79260 | -64.23119 | 14766 ft | 329 kts | 211° |
| 2026-05-07 00:58 | -30.81237 | -64.24369 | 14469 ft | 320 kts | 218° |
| 2026-05-07 00:58 | -30.83130 | -64.25692 | 14215 ft | 315 kts | 217° |
| 2026-05-07 00:59 | -30.87234 | -64.27217 | 13703 ft | 327 kts | 176° |
| 2026-05-07 00:59 | -30.89407 | -64.26355 | 13434 ft | 333 kts | 158° |
| 2026-05-07 00:59 | -30.91479 | -64.25132 | 13104 ft | 335 kts | 158° |
| 2026-05-07 01:00 | -30.93579 | -64.23923 | 12754 ft | 338 kts | 158° |
| 2026-05-07 01:00 | -30.95678 | -64.22739 | 12420 ft | 341 kts | 158° |
| 2026-05-07 01:00 | -30.97830 | -64.21540 | 12068 ft | 342 kts | 158° |
| 2026-05-07 01:00 | -30.99925 | -64.20226 | 11717 ft | 342 kts | 152° |
| 2026-05-07 01:01 | -31.01927 | -64.18738 | 11383 ft | 341 kts | 149° |
| 2026-05-07 01:01 | -31.03891 | -64.17213 | 11035 ft | 340 kts | 149° |
| 2026-05-07 01:01 | -31.05859 | -64.15684 | 10684 ft | 338 kts | 149° |
| 2026-05-07 01:01 | -31.07818 | -64.14175 | 10341 ft | 336 kts | 149° |
| 2026-05-07 01:02 | -31.09776 | -64.12672 | 10077 ft | 334 kts | 148° |
| 2026-05-07 01:02 | -31.11644 | -64.11153 | 10082 ft | 319 kts | 148° |
| 2026-05-07 01:02 | -31.13467 | -64.09778 | 10053 ft | 306 kts | 149° |
| 2026-05-07 01:02 | -31.15248 | -64.08474 | 9887 ft | 300 kts | 150° |
| 2026-05-07 01:03 | -31.17012 | -64.07180 | 9604 ft | 298 kts | 149° |
| 2026-05-07 01:03 | -31.18761 | -64.05885 | 9336 ft | 296 kts | 149° |
| 2026-05-07 01:03 | -31.20495 | -64.04591 | 9050 ft | 295 kts | 148° |
| 2026-05-07 01:03 | -31.22217 | -64.03302 | 8782 ft | 292 kts | 148° |
| 2026-05-07 01:04 | -31.23921 | -64.02069 | 8511 ft | 289 kts | 148° |
| 2026-05-07 01:04 | -31.25601 | -64.00785 | 8233 ft | 290 kts | 147° |
| 2026-05-07 01:04 | -31.27296 | -63.99512 | 7958 ft | 288 kts | 147° |
| 2026-05-07 01:04 | -31.28980 | -63.98250 | 7666 ft | 284 kts | 148° |
| 2026-05-07 01:05 | -31.30634 | -63.96992 | 7381 ft | 282 kts | 146° |
| 2026-05-07 01:05 | -31.32400 | -63.95991 | 7078 ft | 283 kts | 167° |
| 2026-05-07 01:05 | -31.34336 | -63.95772 | 6825 ft | 278 kts | 188° |
| 2026-05-07 01:05 | -31.36258 | -63.95974 | 6573 ft | 279 kts | 184° |
| 2026-05-07 01:06 | -31.38167 | -63.95931 | 6307 ft | 271 kts | 182° |
| 2026-05-07 01:06 | -31.40041 | -63.95908 | 6026 ft | 267 kts | 185° |
| 2026-05-07 01:06 | -31.41717 | -63.96507 | 5766 ft | 246 kts | 224° |
| 2026-05-07 01:06 | -31.42793 | -63.97999 | 5601 ft | 241 kts | 244° |
| 2026-05-07 01:07 | -31.43473 | -63.99780 | 5454 ft | 239 kts | 265° |
| 2026-05-07 01:07 | -31.43538 | -64.01700 | 5368 ft | 234 kts | 276° |
| 2026-05-07 01:07 | -31.43486 | -64.03625 | 5258 ft | 238 kts | 274° |
| 2026-05-07 01:07 | -31.43489 | -64.05557 | 5046 ft | 243 kts | 274° |
| 2026-05-07 01:08 | -31.43491 | -64.07542 | 4777 ft | 241 kts | 274° |
| 2026-05-07 01:08 | -31.43512 | -64.09452 | 4490 ft | 228 kts | 273° |
| 2026-05-07 01:08 | -31.43523 | -64.11264 | 4267 ft | 215 kts | 275° |
| 2026-05-07 01:08 | -31.43515 | -64.12959 | 4034 ft | 201 kts | 275° |
| 2026-05-07 01:09 | -31.43508 | -64.14564 | 3831 ft | 194 kts | 276° |
| 2026-05-07 01:09 | -31.43383 | -64.16123 | 3598 ft | 189 kts | 297° |
| 2026-05-07 01:09 | -31.42533 | -64.17117 | 3467 ft | 165 kts | 335° |
| 2026-05-07 01:09 | -31.41563 | -64.17751 | 3253 ft | 159 kts | 332° |
| 2026-05-07 01:10 | -31.40652 | -64.18390 | 3029 ft | 154 kts | 333° |
| 2026-05-07 01:10 | -31.39715 | -64.19042 | 2587 ft | 161 kts | 333° |
| 2026-05-07 01:10 | -31.38756 | -64.19644 | 2668 ft | 159 kts | 333° |
| 2026-05-07 01:10 | -31.37727 | -64.20190 | 2699 ft | 160 kts | 336° |
| 2026-05-07 01:11 | -31.36668 | -64.20578 | 2581 ft | 162 kts | 348° |
| 2026-05-07 01:11 | -31.35499 | -64.20771 | 2352 ft | 172 kts | 355° |
| 2026-05-07 01:11 | -31.34334 | -64.20797 | 2047 ft | 168 kts | 360° |
| 2026-05-07 01:11 | -31.33190 | -64.20803 | 1800 ft | 161 kts | 358° |
| 2026-05-07 01:12 | -31.31988 | -64.20804 | 2002 ft | 186 kts | 1° |
| 2026-05-07 01:12 | -31.30612 | -64.20779 | 2521 ft | 211 kts | 358° |
| 2026-05-07 01:12 | -31.29082 | -64.20852 | 3174 ft | 226 kts | 356° |
| 2026-05-07 01:12 | -31.27525 | -64.20799 | 4017 ft | 222 kts | 11° |
| 2026-05-07 01:13 | -31.26158 | -64.19998 | 4687 ft | 236 kts | 41° |
| 2026-05-07 01:13 | -31.25202 | -64.18384 | 4843 ft | 243 kts | 69° |
| 2026-05-07 01:13 | -31.24987 | -64.16447 | 5113 ft | 247 kts | 91° |
| 2026-05-07 01:13 | -31.25051 | -64.14479 | 5027 ft | 241 kts | 88° |
| 2026-05-07 01:14 | -31.25045 | -64.12595 | 5015 ft | 223 kts | 84° |
| 2026-05-07 01:14 | -31.25026 | -64.10816 | 5024 ft | 217 kts | 86° |
| 2026-05-07 01:14 | -31.25030 | -64.09046 | 5006 ft | 218 kts | 84° |
| 2026-05-07 01:14 | -31.25032 | -64.07278 | 5028 ft | 217 kts | 86° |
| 2026-05-07 01:15 | -31.25025 | -64.05525 | 5021 ft | 213 kts | 76° |
| 2026-05-07 01:15 | -31.24633 | -64.03893 | 5032 ft | 204 kts | 62° |
| 2026-05-07 01:15 | -31.24025 | -64.02407 | 5027 ft | 204 kts | 58° |
| 2026-05-07 01:15 | -31.23389 | -64.00898 | 5031 ft | 209 kts | 57° |
| 2026-05-07 01:16 | -31.22702 | -63.99391 | 5091 ft | 214 kts | 57° |
| 2026-05-07 01:16 | -31.22008 | -63.97818 | 5502 ft | 220 kts | 56° |
| 2026-05-07 01:16 | -31.21308 | -63.96216 | 5949 ft | 221 kts | 56° |
| 2026-05-07 01:16 | -31.20610 | -63.94587 | 6008 ft | 225 kts | 57° |
| 2026-05-07 01:17 | -31.19927 | -63.92959 | 6018 ft | 221 kts | 57° |
| 2026-05-07 01:17 | -31.19262 | -63.91374 | 6008 ft | 212 kts | 57° |
| 2026-05-07 01:17 | -31.18590 | -63.89879 | 5997 ft | 203 kts | 46° |
| 2026-05-07 01:17 | -31.17471 | -63.88982 | 6042 ft | 206 kts | 7° |
| 2026-05-07 01:18 | -31.16001 | -63.89200 | 6042 ft | 225 kts | 334° |
| 2026-05-07 01:18 | -31.14801 | -63.90369 | 6016 ft | 231 kts | 307° |
| 2026-05-07 01:18 | -31.14081 | -63.92006 | 6018 ft | 225 kts | 297° |
| 2026-05-07 01:18 | -31.13490 | -63.93698 | 6023 ft | 226 kts | 296° |
| 2026-05-07 01:19 | -31.12909 | -63.95420 | 6020 ft | 228 kts | 295° |
| 2026-05-07 01:19 | -31.12325 | -63.97153 | 6028 ft | 230 kts | 296° |
| 2026-05-07 01:19 | -31.11728 | -63.98895 | 6030 ft | 230 kts | 296° |
| 2026-05-07 01:19 | -31.11132 | -64.00630 | 6021 ft | 230 kts | 296° |
| 2026-05-07 01:20 | -31.10537 | -64.02353 | 6014 ft | 229 kts | 295° |
| 2026-05-07 01:20 | -31.09938 | -64.04073 | 6026 ft | 228 kts | 295° |
| 2026-05-07 01:20 | -31.09335 | -64.05797 | 6038 ft | 229 kts | 296° |
| 2026-05-07 01:20 | -31.08736 | -64.07508 | 6041 ft | 232 kts | 296° |
| 2026-05-07 01:21 | -31.08149 | -64.09266 | 6025 ft | 235 kts | 289° |
| 2026-05-07 01:21 | -31.08097 | -64.11186 | 6043 ft | 239 kts | 269° |
| 2026-05-07 01:21 | -31.08232 | -64.13120 | 6026 ft | 239 kts | 271° |
| 2026-05-07 01:21 | -31.08325 | -64.15056 | 6028 ft | 238 kts | 271° |
| 2026-05-07 01:22 | -31.08414 | -64.17007 | 5767 ft | 243 kts | 271° |
| 2026-05-07 01:22 | -31.08541 | -64.18971 | 5494 ft | 243 kts | 264° |
| 2026-05-07 01:22 | -31.09332 | -64.20696 | 5193 ft | 248 kts | 225° |
| 2026-05-07 01:22 | -31.10287 | -64.21329 | 5027 ft | 249 kts | 198° |
| 2026-05-07 01:23 | -31.10632 | -64.21424 | 4972 ft | 248 kts | 189° |
| 2026-05-07 01:23 | -31.12827 | -64.21248 | 4683 ft | 228 kts | 176° |
| 2026-05-07 01:24 | -31.14362 | -64.21147 | 4460 ft | 212 kts | 178° |
| 2026-05-07 01:24 | -31.15342 | -64.21101 | 4359 ft | 208 kts | 179° |
| 2026-05-07 01:24 | -31.16752 | -64.21068 | 4129 ft | 202 kts | 180° |
| 2026-05-07 01:24 | -31.18149 | -64.21044 | 3839 ft | 193 kts | 180° |
| 2026-05-07 01:25 | -31.19444 | -64.21023 | 3603 ft | 184 kts | 179° |
| 2026-05-07 01:25 | -31.20707 | -64.21003 | 3375 ft | 186 kts | 179° |
| 2026-05-07 01:25 | -31.22012 | -64.20981 | 3125 ft | 187 kts | 180° |
| 2026-05-07 01:25 | -31.23285 | -64.20960 | 2877 ft | 177 kts | 180° |
| 2026-05-07 01:26 | -31.24480 | -64.20941 | 2645 ft | 166 kts | 180° |
| 2026-05-07 01:26 | -31.25612 | -64.20923 | 2414 ft | 158 kts | 179° |
| 2026-05-07 01:26 | -31.26691 | -64.20905 | 2215 ft | 156 kts | 179° |
| 2026-05-07 01:26 | -31.27798 | -64.20888 | 2037 ft | 161 kts | 179° |
| 2026-05-07 01:27 | -31.28918 | -64.20862 | 1797 ft | 162 kts | 180° |
| 2026-05-07 01:27 | -31.30019 | -64.20850 | 1622 ft | 150 kts | 180° |
| 2026-05-07 01:27 | -31.30880 | -64.20838 | 1614 ft | 92 kts | 179° |
| 2026-05-07 01:27 | -31.31328 | -64.20831 | 1617 ft | 32 kts | 179° |
| 2026-05-07 01:28 | -31.31438 | -64.20839 | 1617 ft | 13 kts | 207° |
| 2026-05-07 01:28 | -31.31465 | -64.20900 | 1619 ft | 7 kts | 268° |
| 2026-05-07 01:28 | -31.31466 | -64.20931 | 1612 ft | 3 kts | 269° |
| 2026-05-07 01:28 | -31.31466 | -64.20951 | 1612 ft | 2 kts | 269° |
| 2026-05-07 01:29 | -31.31466 | -64.20971 | 1612 ft | 2 kts | 269° |
| 2026-05-07 01:29 | -31.31467 | -64.20991 | 1612 ft | 3 kts | 264° |
| 2026-05-07 01:29 | -31.31478 | -64.21031 | 1612 ft | 8 kts | 242° |
| 2026-05-07 01:29 | -31.31518 | -64.21073 | 1612 ft | 7 kts | 202° |
| 2026-05-07 01:30 | -31.31563 | -64.21096 | 1618 ft | 7 kts | 208° |
| 2026-05-07 01:30 | -31.31598 | -64.21101 | 1612 ft | 4 kts | 181° |
| 2026-05-07 01:30 | -31.31612 | -64.21121 | 1618 ft | 4 kts | 268° |
| 2026-05-07 01:30 | -31.31612 | -64.21152 | 1618 ft | 4 kts | 270° |
| 2026-05-07 01:31 | -31.31612 | -64.21163 | 1612 ft | 0 kts | 270° |